sensor_id;sensor_type;location;lat;lon;timestamp;P1;durP1;ratioP1;P2;durP2;ratioP2
66012;SDS011;52783;50.502;8.190;2022-07-10T00:02:09;6.85;;;1.85;;
66012;SDS011;52783;50.502;8.190;2022-07-10T00:04:34;6.70;;;2.00;;
66012;SDS011;52783;50.502;8.190;2022-07-10T00:07:00;7.85;;;2.00;;
66012;SDS011;52783;50.502;8.190;2022-07-10T00:09:27;6.97;;;2.42;;
66012;SDS011;52783;50.502;8.190;2022-07-10T00:11:53;5.35;;;2.38;;
66012;SDS011;52783;50.502;8.190;2022-07-10T00:14:19;6.50;;;2.13;;
66012;SDS011;52783;50.502;8.190;2022-07-10T00:16:45;7.80;;;2.40;;
66012;SDS011;52783;50.502;8.190;2022-07-10T00:19:11;5.22;;;2.20;;
66012;SDS011;52783;50.502;8.190;2022-07-10T00:21:36;6.35;;;1.63;;
66012;SDS011;52783;50.502;8.190;2022-07-10T00:24:02;4.72;;;1.88;;
66012;SDS011;52783;50.502;8.190;2022-07-10T00:26:28;2.75;;;1.60;;
66012;SDS011;52783;50.502;8.190;2022-07-10T00:28:53;4.65;;;1.73;;
66012;SDS011;52783;50.502;8.190;2022-07-10T00:31:20;3.47;;;1.60;;
66012;SDS011;52783;50.502;8.190;2022-07-10T00:33:45;4.88;;;2.17;;
66012;SDS011;52783;50.502;8.190;2022-07-10T00:36:11;4.15;;;1.88;;
66012;SDS011;52783;50.502;8.190;2022-07-10T00:38:37;7.38;;;2.00;;
66012;SDS011;52783;50.502;8.190;2022-07-10T00:41:02;7.72;;;2.30;;
66012;SDS011;52783;50.502;8.190;2022-07-10T00:43:28;6.28;;;1.73;;
66012;SDS011;52783;50.502;8.190;2022-07-10T00:45:53;7.28;;;2.10;;
66012;SDS011;52783;50.502;8.190;2022-07-10T00:48:19;5.63;;;1.88;;
66012;SDS011;52783;50.502;8.190;2022-07-10T00:50:44;6.70;;;1.90;;
66012;SDS011;52783;50.502;8.190;2022-07-10T00:53:14;6.00;;;2.03;;
66012;SDS011;52783;50.502;8.190;2022-07-10T00:55:39;6.07;;;1.95;;
66012;SDS011;52783;50.502;8.190;2022-07-10T00:58:06;12.75;;;2.40;;
66012;SDS011;52783;50.502;8.190;2022-07-10T01:00:35;4.30;;;2.08;;
66012;SDS011;52783;50.502;8.190;2022-07-10T01:03:04;4.40;;;1.85;;
66012;SDS011;52783;50.502;8.190;2022-07-10T01:05:30;7.03;;;2.20;;
66012;SDS011;52783;50.502;8.190;2022-07-10T01:07:56;4.80;;;2.00;;
66012;SDS011;52783;50.502;8.190;2022-07-10T01:10:21;10.35;;;2.13;;
66012;SDS011;52783;50.502;8.190;2022-07-10T01:12:47;6.10;;;1.83;;
66012;SDS011;52783;50.502;8.190;2022-07-10T01:15:13;7.13;;;1.90;;
66012;SDS011;52783;50.502;8.190;2022-07-10T01:17:38;2.88;;;1.88;;
66012;SDS011;52783;50.502;8.190;2022-07-10T01:20:05;7.38;;;2.00;;
66012;SDS011;52783;50.502;8.190;2022-07-10T01:22:32;6.43;;;1.75;;
66012;SDS011;52783;50.502;8.190;2022-07-10T01:24:58;3.60;;;1.65;;
66012;SDS011;52783;50.502;8.190;2022-07-10T01:27:23;3.65;;;1.55;;
66012;SDS011;52783;50.502;8.190;2022-07-10T01:29:49;2.92;;;1.55;;
66012;SDS011;52783;50.502;8.190;2022-07-10T01:32:16;6.68;;;1.92;;
66012;SDS011;52783;50.502;8.190;2022-07-10T01:34:41;9.27;;;2.42;;
66012;SDS011;52783;50.502;8.190;2022-07-10T01:37:07;5.78;;;1.60;;
66012;SDS011;52783;50.502;8.190;2022-07-10T01:39:33;3.03;;;1.40;;
66012;SDS011;52783;50.502;8.190;2022-07-10T01:45:11;10.93;;;2.20;;
66012;SDS011;52783;50.502;8.190;2022-07-10T01:47:37;11.20;;;1.90;;
66012;SDS011;52783;50.502;8.190;2022-07-10T01:50:03;7.25;;;1.98;;
66012;SDS011;52783;50.502;8.190;2022-07-10T01:52:30;5.50;;;1.73;;
66012;SDS011;52783;50.502;8.190;2022-07-10T01:54:55;6.75;;;1.75;;
66012;SDS011;52783;50.502;8.190;2022-07-10T01:57:21;7.22;;;1.98;;
66012;SDS011;52783;50.502;8.190;2022-07-10T01:59:46;3.72;;;1.60;;
66012;SDS011;52783;50.502;8.190;2022-07-10T02:02:12;6.82;;;1.90;;
66012;SDS011;52783;50.502;8.190;2022-07-10T02:04:37;5.97;;;2.00;;
66012;SDS011;52783;50.502;8.190;2022-07-10T02:07:16;3.90;;;1.60;;
66012;SDS011;52783;50.502;8.190;2022-07-10T02:09:43;6.47;;;2.00;;
66012;SDS011;52783;50.502;8.190;2022-07-10T02:12:10;9.05;;;1.70;;
66012;SDS011;52783;50.502;8.190;2022-07-10T02:14:38;8.20;;;1.90;;
66012;SDS011;52783;50.502;8.190;2022-07-10T02:17:04;4.13;;;1.80;;
66012;SDS011;52783;50.502;8.190;2022-07-10T02:19:30;8.25;;;2.47;;
66012;SDS011;52783;50.502;8.190;2022-07-10T02:21:56;7.13;;;2.13;;
66012;SDS011;52783;50.502;8.190;2022-07-10T02:24:22;3.83;;;1.30;;
66012;SDS011;52783;50.502;8.190;2022-07-10T02:26:48;4.00;;;1.60;;
66012;SDS011;52783;50.502;8.190;2022-07-10T02:29:13;4.40;;;1.80;;
66012;SDS011;52783;50.502;8.190;2022-07-10T02:31:39;4.45;;;1.80;;
66012;SDS011;52783;50.502;8.190;2022-07-10T02:34:08;4.03;;;1.95;;
66012;SDS011;52783;50.502;8.190;2022-07-10T02:36:35;7.15;;;1.80;;
66012;SDS011;52783;50.502;8.190;2022-07-10T02:39:02;7.78;;;1.52;;
66012;SDS011;52783;50.502;8.190;2022-07-10T02:41:28;3.22;;;1.50;;
66012;SDS011;52783;50.502;8.190;2022-07-10T02:43:53;4.13;;;1.55;;
66012;SDS011;52783;50.502;8.190;2022-07-10T02:46:19;9.48;;;1.90;;
66012;SDS011;52783;50.502;8.190;2022-07-10T02:48:44;5.95;;;1.88;;
66012;SDS011;52783;50.502;8.190;2022-07-10T02:51:10;2.97;;;1.55;;
66012;SDS011;52783;50.502;8.190;2022-07-10T02:53:35;5.07;;;1.52;;
66012;SDS011;52783;50.502;8.190;2022-07-10T02:56:01;4.13;;;1.60;;
66012;SDS011;52783;50.502;8.190;2022-07-10T02:58:27;9.45;;;1.88;;
66012;SDS011;52783;50.502;8.190;2022-07-10T03:00:52;4.35;;;1.45;;
66012;SDS011;52783;50.502;8.190;2022-07-10T03:03:18;7.50;;;2.00;;
66012;SDS011;52783;50.502;8.190;2022-07-10T03:05:44;5.95;;;1.90;;
66012;SDS011;52783;50.502;8.190;2022-07-10T03:08:10;5.53;;;1.98;;
66012;SDS011;52783;50.502;8.190;2022-07-10T03:10:36;3.20;;;1.40;;
66012;SDS011;52783;50.502;8.190;2022-07-10T03:13:02;2.17;;;1.30;;
66012;SDS011;52783;50.502;8.190;2022-07-10T03:15:28;4.40;;;1.65;;
66012;SDS011;52783;50.502;8.190;2022-07-10T03:17:54;6.60;;;1.88;;
66012;SDS011;52783;50.502;8.190;2022-07-10T03:20:19;4.07;;;1.70;;
66012;SDS011;52783;50.502;8.190;2022-07-10T03:22:45;3.78;;;1.73;;
66012;SDS011;52783;50.502;8.190;2022-07-10T03:25:11;6.32;;;1.80;;
66012;SDS011;52783;50.502;8.190;2022-07-10T03:27:36;15.30;;;3.35;;
66012;SDS011;52783;50.502;8.190;2022-07-10T03:30:02;7.47;;;1.60;;
66012;SDS011;52783;50.502;8.190;2022-07-10T03:32:29;7.07;;;1.73;;
66012;SDS011;52783;50.502;8.190;2022-07-10T03:34:54;6.97;;;1.92;;
66012;SDS011;52783;50.502;8.190;2022-07-10T03:37:20;8.65;;;1.73;;
66012;SDS011;52783;50.502;8.190;2022-07-10T03:39:45;3.28;;;1.60;;
66012;SDS011;52783;50.502;8.190;2022-07-10T03:42:11;3.88;;;1.80;;
66012;SDS011;52783;50.502;8.190;2022-07-10T03:44:36;7.10;;;1.58;;
66012;SDS011;52783;50.502;8.190;2022-07-10T03:47:02;3.25;;;1.50;;
66012;SDS011;52783;50.502;8.190;2022-07-10T03:49:28;11.00;;;1.90;;
66012;SDS011;52783;50.502;8.190;2022-07-10T03:51:54;4.97;;;1.70;;
66012;SDS011;52783;50.502;8.190;2022-07-10T03:54:19;9.35;;;1.90;;
66012;SDS011;52783;50.502;8.190;2022-07-10T03:56:45;9.38;;;1.85;;
66012;SDS011;52783;50.502;8.190;2022-07-10T03:59:29;7.05;;;1.50;;
66012;SDS011;52783;50.502;8.190;2022-07-10T04:01:54;4.55;;;1.60;;
66012;SDS011;52783;50.502;8.190;2022-07-10T04:04:20;4.78;;;1.70;;
66012;SDS011;52783;50.502;8.190;2022-07-10T04:06:45;7.32;;;1.48;;
66012;SDS011;52783;50.502;8.190;2022-07-10T04:09:11;5.45;;;1.70;;
66012;SDS011;52783;50.502;8.190;2022-07-10T04:11:36;5.78;;;1.80;;
66012;SDS011;52783;50.502;8.190;2022-07-10T04:14:02;4.28;;;1.60;;
66012;SDS011;52783;50.502;8.190;2022-07-10T04:16:28;4.47;;;1.88;;
66012;SDS011;52783;50.502;8.190;2022-07-10T04:18:53;11.13;;;2.05;;
66012;SDS011;52783;50.502;8.190;2022-07-10T04:21:19;2.92;;;1.60;;
66012;SDS011;52783;50.502;8.190;2022-07-10T04:23:44;9.13;;;2.17;;
66012;SDS011;52783;50.502;8.190;2022-07-10T04:26:10;5.75;;;1.85;;
66012;SDS011;52783;50.502;8.190;2022-07-10T04:28:35;6.93;;;2.28;;
66012;SDS011;52783;50.502;8.190;2022-07-10T04:31:01;5.07;;;1.75;;
66012;SDS011;52783;50.502;8.190;2022-07-10T04:33:27;5.97;;;1.70;;
66012;SDS011;52783;50.502;8.190;2022-07-10T04:35:52;4.53;;;2.03;;
66012;SDS011;52783;50.502;8.190;2022-07-10T04:38:18;10.43;;;2.17;;
66012;SDS011;52783;50.502;8.190;2022-07-10T04:40:44;4.88;;;1.90;;
66012;SDS011;52783;50.502;8.190;2022-07-10T04:43:10;6.35;;;2.00;;
66012;SDS011;52783;50.502;8.190;2022-07-10T04:45:36;4.50;;;1.60;;
66012;SDS011;52783;50.502;8.190;2022-07-10T04:48:03;6.47;;;1.98;;
66012;SDS011;52783;50.502;8.190;2022-07-10T04:50:32;6.03;;;1.80;;
66012;SDS011;52783;50.502;8.190;2022-07-10T04:52:57;5.72;;;1.90;;
66012;SDS011;52783;50.502;8.190;2022-07-10T04:55:23;3.78;;;1.80;;
66012;SDS011;52783;50.502;8.190;2022-07-10T04:57:49;5.20;;;2.00;;
66012;SDS011;52783;50.502;8.190;2022-07-10T05:00:15;5.43;;;2.08;;
66012;SDS011;52783;50.502;8.190;2022-07-10T05:02:41;4.63;;;1.80;;
66012;SDS011;52783;50.502;8.190;2022-07-10T05:05:07;5.80;;;2.08;;
66012;SDS011;52783;50.502;8.190;2022-07-10T05:07:33;6.10;;;2.08;;
66012;SDS011;52783;50.502;8.190;2022-07-10T05:09:58;5.53;;;2.00;;
66012;SDS011;52783;50.502;8.190;2022-07-10T05:12:24;2.67;;;1.63;;
66012;SDS011;52783;50.502;8.190;2022-07-10T05:14:49;8.60;;;2.03;;
66012;SDS011;52783;50.502;8.190;2022-07-10T05:17:15;10.20;;;2.00;;
66012;SDS011;52783;50.502;8.190;2022-07-10T05:19:40;2.83;;;1.80;;
66012;SDS011;52783;50.502;8.190;2022-07-10T05:22:06;8.25;;;2.13;;
66012;SDS011;52783;50.502;8.190;2022-07-10T05:24:34;5.05;;;1.80;;
66012;SDS011;52783;50.502;8.190;2022-07-10T05:26:59;3.95;;;2.00;;
66012;SDS011;52783;50.502;8.190;2022-07-10T05:29:25;5.65;;;1.70;;
66012;SDS011;52783;50.502;8.190;2022-07-10T05:31:50;4.88;;;1.85;;
66012;SDS011;52783;50.502;8.190;2022-07-10T05:34:16;6.68;;;2.13;;
66012;SDS011;52783;50.502;8.190;2022-07-10T05:36:41;4.53;;;1.70;;
66012;SDS011;52783;50.502;8.190;2022-07-10T05:39:07;8.05;;;1.88;;
66012;SDS011;52783;50.502;8.190;2022-07-10T05:41:33;3.97;;;1.60;;
66012;SDS011;52783;50.502;8.190;2022-07-10T05:43:59;9.18;;;2.10;;
66012;SDS011;52783;50.502;8.190;2022-07-10T05:46:25;8.63;;;2.20;;
66012;SDS011;52783;50.502;8.190;2022-07-10T05:48:50;5.97;;;1.90;;
66012;SDS011;52783;50.502;8.190;2022-07-10T05:51:16;6.22;;;1.90;;
66012;SDS011;52783;50.502;8.190;2022-07-10T05:53:41;5.78;;;1.80;;
66012;SDS011;52783;50.502;8.190;2022-07-10T05:56:07;8.18;;;1.88;;
66012;SDS011;52783;50.502;8.190;2022-07-10T05:58:33;6.22;;;1.85;;
66012;SDS011;52783;50.502;8.190;2022-07-10T06:00:58;11.43;;;2.10;;
66012;SDS011;52783;50.502;8.190;2022-07-10T06:03:24;6.32;;;2.03;;
66012;SDS011;52783;50.502;8.190;2022-07-10T06:05:49;4.22;;;1.50;;
66012;SDS011;52783;50.502;8.190;2022-07-10T06:08:15;12.85;;;2.30;;
66012;SDS011;52783;50.502;8.190;2022-07-10T06:10:41;7.20;;;1.92;;
66012;SDS011;52783;50.502;8.190;2022-07-10T06:13:09;4.80;;;1.60;;
66012;SDS011;52783;50.502;8.190;2022-07-10T06:15:35;8.65;;;1.80;;
66012;SDS011;52783;50.502;8.190;2022-07-10T06:18:00;4.28;;;1.80;;
66012;SDS011;52783;50.502;8.190;2022-07-10T06:20:26;7.13;;;2.65;;
66012;SDS011;52783;50.502;8.190;2022-07-10T06:22:52;10.00;;;2.00;;
66012;SDS011;52783;50.502;8.190;2022-07-10T06:25:17;10.13;;;2.38;;
66012;SDS011;52783;50.502;8.190;2022-07-10T06:27:43;7.20;;;2.10;;
66012;SDS011;52783;50.502;8.190;2022-07-10T06:30:09;8.77;;;2.58;;
66012;SDS011;52783;50.502;8.190;2022-07-10T06:32:35;6.10;;;1.60;;
66012;SDS011;52783;50.502;8.190;2022-07-10T06:35:01;7.88;;;1.48;;
66012;SDS011;52783;50.502;8.190;2022-07-10T06:37:27;11.95;;;2.20;;
66012;SDS011;52783;50.502;8.190;2022-07-10T06:39:52;6.43;;;2.30;;
66012;SDS011;52783;50.502;8.190;2022-07-10T06:42:18;8.00;;;2.00;;
66012;SDS011;52783;50.502;8.190;2022-07-10T06:44:44;12.30;;;2.58;;
66012;SDS011;52783;50.502;8.190;2022-07-10T06:47:10;4.57;;;2.00;;
66012;SDS011;52783;50.502;8.190;2022-07-10T06:49:56;7.47;;;2.13;;
66012;SDS011;52783;50.502;8.190;2022-07-10T06:52:21;6.57;;;2.00;;
66012;SDS011;52783;50.502;8.190;2022-07-10T06:54:47;8.43;;;1.83;;
66012;SDS011;52783;50.502;8.190;2022-07-10T06:57:14;5.90;;;2.25;;
66012;SDS011;52783;50.502;8.190;2022-07-10T06:59:40;6.78;;;2.10;;
66012;SDS011;52783;50.502;8.190;2022-07-10T07:02:06;7.50;;;2.08;;
66012;SDS011;52783;50.502;8.190;2022-07-10T07:04:32;11.20;;;2.13;;
66012;SDS011;52783;50.502;8.190;2022-07-10T07:06:58;5.57;;;1.88;;
66012;SDS011;52783;50.502;8.190;2022-07-10T07:09:23;6.20;;;2.13;;
66012;SDS011;52783;50.502;8.190;2022-07-10T07:11:49;5.80;;;1.80;;
66012;SDS011;52783;50.502;8.190;2022-07-10T07:14:14;7.07;;;1.85;;
66012;SDS011;52783;50.502;8.190;2022-07-10T07:16:40;4.68;;;1.58;;
66012;SDS011;52783;50.502;8.190;2022-07-10T07:19:11;6.82;;;1.73;;
66012;SDS011;52783;50.502;8.190;2022-07-10T07:21:42;4.95;;;1.52;;
66012;SDS011;52783;50.502;8.190;2022-07-10T07:24:26;10.63;;;1.73;;
66012;SDS011;52783;50.502;8.190;2022-07-10T07:26:52;3.10;;;1.63;;
66012;SDS011;52783;50.502;8.190;2022-07-10T07:29:17;5.53;;;1.83;;
66012;SDS011;52783;50.502;8.190;2022-07-10T07:31:43;6.05;;;1.95;;
66012;SDS011;52783;50.502;8.190;2022-07-10T07:34:09;5.68;;;1.85;;
66012;SDS011;52783;50.502;8.190;2022-07-10T07:36:35;4.13;;;1.40;;
66012;SDS011;52783;50.502;8.190;2022-07-10T07:39:02;7.13;;;1.88;;
66012;SDS011;52783;50.502;8.190;2022-07-10T07:41:28;5.35;;;1.67;;
66012;SDS011;52783;50.502;8.190;2022-07-10T07:43:53;7.32;;;1.98;;
66012;SDS011;52783;50.502;8.190;2022-07-10T07:46:19;15.43;;;2.00;;
66012;SDS011;52783;50.502;8.190;2022-07-10T07:48:45;17.15;;;2.17;;
66012;SDS011;52783;50.502;8.190;2022-07-10T07:51:11;6.47;;;1.98;;
66012;SDS011;52783;50.502;8.190;2022-07-10T07:53:36;9.23;;;1.75;;
66012;SDS011;52783;50.502;8.190;2022-07-10T07:56:02;8.55;;;2.17;;
66012;SDS011;52783;50.502;8.190;2022-07-10T07:58:28;5.85;;;2.22;;
66012;SDS011;52783;50.502;8.190;2022-07-10T08:00:55;8.23;;;2.05;;
66012;SDS011;52783;50.502;8.190;2022-07-10T08:03:21;6.82;;;1.80;;
66012;SDS011;52783;50.502;8.190;2022-07-10T08:05:47;10.07;;;2.00;;
66012;SDS011;52783;50.502;8.190;2022-07-10T08:08:13;6.97;;;2.60;;
66012;SDS011;52783;50.502;8.190;2022-07-10T08:10:39;11.77;;;2.40;;
66012;SDS011;52783;50.502;8.190;2022-07-10T08:13:04;8.40;;;1.58;;
66012;SDS011;52783;50.502;8.190;2022-07-10T08:15:30;6.65;;;1.80;;
66012;SDS011;52783;50.502;8.190;2022-07-10T08:17:56;5.88;;;1.95;;
66012;SDS011;52783;50.502;8.190;2022-07-10T08:20:23;9.25;;;1.88;;
66012;SDS011;52783;50.502;8.190;2022-07-10T08:22:50;5.45;;;1.75;;
66012;SDS011;52783;50.502;8.190;2022-07-10T08:25:18;7.50;;;2.17;;
66012;SDS011;52783;50.502;8.190;2022-07-10T08:27:44;11.02;;;2.00;;
66012;SDS011;52783;50.502;8.190;2022-07-10T08:30:10;8.93;;;2.03;;
66012;SDS011;52783;50.502;8.190;2022-07-10T08:32:37;5.20;;;1.80;;
66012;SDS011;52783;50.502;8.190;2022-07-10T08:35:03;7.22;;;1.73;;
66012;SDS011;52783;50.502;8.190;2022-07-10T08:37:30;7.60;;;1.83;;
66012;SDS011;52783;50.502;8.190;2022-07-10T08:40:02;7.00;;;2.08;;
66012;SDS011;52783;50.502;8.190;2022-07-10T08:42:28;7.05;;;1.83;;
66012;SDS011;52783;50.502;8.190;2022-07-10T08:44:57;6.20;;;1.90;;
66012;SDS011;52783;50.502;8.190;2022-07-10T08:47:22;7.07;;;2.03;;
66012;SDS011;52783;50.502;8.190;2022-07-10T08:49:50;5.97;;;1.83;;
66012;SDS011;52783;50.502;8.190;2022-07-10T08:52:24;10.65;;;2.58;;
66012;SDS011;52783;50.502;8.190;2022-07-10T08:54:51;7.85;;;2.13;;
66012;SDS011;52783;50.502;8.190;2022-07-10T08:57:16;5.68;;;1.95;;
66012;SDS011;52783;50.502;8.190;2022-07-10T08:59:43;3.58;;;1.75;;
66012;SDS011;52783;50.502;8.190;2022-07-10T09:02:09;7.10;;;2.33;;
66012;SDS011;52783;50.502;8.190;2022-07-10T09:04:34;5.90;;;1.73;;
66012;SDS011;52783;50.502;8.190;2022-07-10T09:07:00;7.00;;;1.73;;
66012;SDS011;52783;50.502;8.190;2022-07-10T09:09:25;5.18;;;1.70;;
66012;SDS011;52783;50.502;8.190;2022-07-10T09:11:57;6.95;;;1.70;;
66012;SDS011;52783;50.502;8.190;2022-07-10T09:14:24;5.78;;;1.95;;
66012;SDS011;52783;50.502;8.190;2022-07-10T09:16:52;6.47;;;1.98;;
66012;SDS011;52783;50.502;8.190;2022-07-10T09:19:22;4.53;;;1.55;;
66012;SDS011;52783;50.502;8.190;2022-07-10T09:24:15;6.47;;;1.80;;
66012;SDS011;52783;50.502;8.190;2022-07-10T09:26:47;9.70;;;1.30;;
66012;SDS011;52783;50.502;8.190;2022-07-10T09:29:23;3.28;;;1.30;;
66012;SDS011;52783;50.502;8.190;2022-07-10T09:31:49;2.75;;;1.50;;
66012;SDS011;52783;50.502;8.190;2022-07-10T09:34:16;10.55;;;2.17;;
66012;SDS011;52783;50.502;8.190;2022-07-10T09:36:43;5.38;;;1.83;;
66012;SDS011;52783;50.502;8.190;2022-07-10T09:39:08;7.80;;;2.10;;
66012;SDS011;52783;50.502;8.190;2022-07-10T09:41:34;5.05;;;1.80;;
66012;SDS011;52783;50.502;8.190;2022-07-10T09:44:03;5.97;;;1.83;;
66012;SDS011;52783;50.502;8.190;2022-07-10T09:46:37;6.15;;;2.40;;
66012;SDS011;52783;50.502;8.190;2022-07-10T09:49:10;6.40;;;1.98;;
66012;SDS011;52783;50.502;8.190;2022-07-10T09:51:37;7.45;;;1.90;;
66012;SDS011;52783;50.502;8.190;2022-07-10T09:54:05;8.68;;;1.85;;
66012;SDS011;52783;50.502;8.190;2022-07-10T09:56:50;11.10;;;2.35;;
66012;SDS011;52783;50.502;8.190;2022-07-10T09:59:19;5.70;;;1.48;;
66012;SDS011;52783;50.502;8.190;2022-07-10T10:01:52;4.53;;;1.30;;
66012;SDS011;52783;50.502;8.190;2022-07-10T10:04:18;5.43;;;1.73;;
66012;SDS011;52783;50.502;8.190;2022-07-10T10:06:49;6.93;;;1.90;;
66012;SDS011;52783;50.502;8.190;2022-07-10T10:09:26;4.10;;;1.50;;
66012;SDS011;52783;50.502;8.190;2022-07-10T10:12:12;4.60;;;1.58;;
66012;SDS011;52783;50.502;8.190;2022-07-10T10:14:45;4.40;;;1.50;;
66012;SDS011;52783;50.502;8.190;2022-07-10T10:17:11;7.47;;;1.80;;
66012;SDS011;52783;50.502;8.190;2022-07-10T10:19:38;11.68;;;1.70;;
66012;SDS011;52783;50.502;8.190;2022-07-10T10:22:24;7.35;;;1.30;;
66012;SDS011;52783;50.502;8.190;2022-07-10T10:24:50;6.40;;;1.63;;
66012;SDS011;52783;50.502;8.190;2022-07-10T10:27:18;5.80;;;1.80;;
66012;SDS011;52783;50.502;8.190;2022-07-10T10:29:45;8.82;;;1.52;;
66012;SDS011;52783;50.502;8.190;2022-07-10T10:32:13;6.63;;;1.10;;
66012;SDS011;52783;50.502;8.190;2022-07-10T10:34:48;2.97;;;1.10;;
66012;SDS011;52783;50.502;8.190;2022-07-10T10:39:52;3.03;;;1.20;;
66012;SDS011;52783;50.502;8.190;2022-07-10T10:48:10;4.30;;;1.55;;
66012;SDS011;52783;50.502;8.190;2022-07-10T10:50:38;6.20;;;1.80;;
66012;SDS011;52783;50.502;8.190;2022-07-10T10:53:11;5.20;;;1.90;;
66012;SDS011;52783;50.502;8.190;2022-07-10T10:58:29;2.83;;;1.40;;
66012;SDS011;52783;50.502;8.190;2022-07-10T11:06:42;6.95;;;1.42;;
66012;SDS011;52783;50.502;8.190;2022-07-10T11:14:38;8.93;;;1.52;;
66012;SDS011;52783;50.502;8.190;2022-07-10T11:17:07;7.82;;;1.98;;
66012;SDS011;52783;50.502;8.190;2022-07-10T11:19:34;3.95;;;1.55;;
66012;SDS011;52783;50.502;8.190;2022-07-10T11:22:07;4.20;;;1.58;;
66012;SDS011;52783;50.502;8.190;2022-07-10T11:30:13;4.88;;;2.42;;
66012;SDS011;52783;50.502;8.190;2022-07-10T11:32:38;11.75;;;1.73;;
66012;SDS011;52783;50.502;8.190;2022-07-10T11:35:08;3.80;;;1.40;;
66012;SDS011;52783;50.502;8.190;2022-07-10T11:37:51;4.47;;;1.48;;
66012;SDS011;52783;50.502;8.190;2022-07-10T11:40:18;4.35;;;1.92;;
66012;SDS011;52783;50.502;8.190;2022-07-10T11:42:51;6.05;;;1.90;;
66012;SDS011;52783;50.502;8.190;2022-07-10T11:45:36;8.02;;;1.65;;
66012;SDS011;52783;50.502;8.190;2022-07-10T11:48:04;7.55;;;1.55;;
66012;SDS011;52783;50.502;8.190;2022-07-10T11:50:37;2.70;;;1.25;;
66012;SDS011;52783;50.502;8.190;2022-07-10T11:53:04;4.28;;;1.33;;
66012;SDS011;52783;50.502;8.190;2022-07-10T11:55:30;2.25;;;1.13;;
66012;SDS011;52783;50.502;8.190;2022-07-10T11:58:11;4.43;;;1.55;;
66012;SDS011;52783;50.502;8.190;2022-07-10T12:00:38;4.15;;;1.55;;
66012;SDS011;52783;50.502;8.190;2022-07-10T12:03:19;3.15;;;1.60;;
66012;SDS011;52783;50.502;8.190;2022-07-10T12:05:45;3.72;;;1.15;;
66012;SDS011;52783;50.502;8.190;2022-07-10T12:08:13;2.72;;;1.00;;
66012;SDS011;52783;50.502;8.190;2022-07-10T12:10:38;2.53;;;1.38;;
66012;SDS011;52783;50.502;8.190;2022-07-10T12:13:07;5.85;;;1.45;;
66012;SDS011;52783;50.502;8.190;2022-07-10T12:15:40;2.67;;;1.20;;
66012;SDS011;52783;50.502;8.190;2022-07-10T12:18:08;4.63;;;1.33;;
66012;SDS011;52783;50.502;8.190;2022-07-10T12:20:40;7.57;;;1.13;;
66012;SDS011;52783;50.502;8.190;2022-07-10T12:23:10;4.00;;;1.38;;
66012;SDS011;52783;50.502;8.190;2022-07-10T12:25:37;2.42;;;1.08;;
66012;SDS011;52783;50.502;8.190;2022-07-10T12:28:03;4.25;;;1.42;;
66012;SDS011;52783;50.502;8.190;2022-07-10T12:33:09;4.32;;;1.02;;
66012;SDS011;52783;50.502;8.190;2022-07-10T12:40:44;3.05;;;1.15;;
66012;SDS011;52783;50.502;8.190;2022-07-10T12:43:10;2.50;;;0.90;;
66012;SDS011;52783;50.502;8.190;2022-07-10T12:45:36;1.35;;;0.93;;
66012;SDS011;52783;50.502;8.190;2022-07-10T12:48:03;3.35;;;1.10;;
66012;SDS011;52783;50.502;8.190;2022-07-10T12:50:31;0.50;;;0.50;;
66012;SDS011;52783;50.502;8.190;2022-07-10T12:53:12;1.70;;;0.57;;
66012;SDS011;52783;50.502;8.190;2022-07-10T12:55:38;2.47;;;0.88;;
66012;SDS011;52783;50.502;8.190;2022-07-10T12:58:07;2.53;;;1.13;;
66012;SDS011;52783;50.502;8.190;2022-07-10T13:00:34;1.58;;;0.80;;
66012;SDS011;52783;50.502;8.190;2022-07-10T13:03:02;3.42;;;0.90;;
66012;SDS011;52783;50.502;8.190;2022-07-10T13:08:13;2.83;;;1.05;;
66012;SDS011;52783;50.502;8.190;2022-07-10T13:10:44;3.85;;;1.48;;
66012;SDS011;52783;50.502;8.190;2022-07-10T13:13:12;1.48;;;0.90;;
66012;SDS011;52783;50.502;8.190;2022-07-10T13:15:38;2.40;;;0.77;;
66012;SDS011;52783;50.502;8.190;2022-07-10T13:18:11;0.70;;;0.70;;
66012;SDS011;52783;50.502;8.190;2022-07-10T13:20:38;2.08;;;0.73;;
66012;SDS011;52783;50.502;8.190;2022-07-10T13:23:04;1.90;;;0.98;;
66012;SDS011;52783;50.502;8.190;2022-07-10T13:25:30;1.48;;;0.73;;
66012;SDS011;52783;50.502;8.190;2022-07-10T13:27:56;1.95;;;0.60;;
66012;SDS011;52783;50.502;8.190;2022-07-10T13:30:21;0.90;;;0.60;;
66012;SDS011;52783;50.502;8.190;2022-07-10T13:32:47;2.20;;;0.80;;
66012;SDS011;52783;50.502;8.190;2022-07-10T13:35:13;2.25;;;0.82;;
66012;SDS011;52783;50.502;8.190;2022-07-10T13:37:38;2.35;;;0.80;;
66012;SDS011;52783;50.502;8.190;2022-07-10T13:40:04;0.70;;;0.50;;
66012;SDS011;52783;50.502;8.190;2022-07-10T13:42:30;1.25;;;0.88;;
66012;SDS011;52783;50.502;8.190;2022-07-10T13:44:56;1.33;;;0.85;;
66012;SDS011;52783;50.502;8.190;2022-07-10T13:47:21;1.30;;;0.77;;
66012;SDS011;52783;50.502;8.190;2022-07-10T13:49:47;1.75;;;0.73;;
66012;SDS011;52783;50.502;8.190;2022-07-10T13:52:13;1.08;;;0.80;;
66012;SDS011;52783;50.502;8.190;2022-07-10T13:54:38;1.20;;;0.77;;
66012;SDS011;52783;50.502;8.190;2022-07-10T13:57:04;1.00;;;0.70;;
66012;SDS011;52783;50.502;8.190;2022-07-10T13:59:29;1.25;;;0.70;;
66012;SDS011;52783;50.502;8.190;2022-07-10T14:01:55;2.45;;;0.93;;
66012;SDS011;52783;50.502;8.190;2022-07-10T14:04:20;0.68;;;0.68;;
66012;SDS011;52783;50.502;8.190;2022-07-10T14:06:46;1.70;;;1.05;;
66012;SDS011;52783;50.502;8.190;2022-07-10T14:09:12;2.20;;;0.90;;
66012;SDS011;52783;50.502;8.190;2022-07-10T14:11:37;1.40;;;0.93;;
66012;SDS011;52783;50.502;8.190;2022-07-10T14:14:03;3.17;;;1.02;;
66012;SDS011;52783;50.502;8.190;2022-07-10T14:16:28;1.90;;;1.00;;
66012;SDS011;52783;50.502;8.190;2022-07-10T14:18:54;3.10;;;1.02;;
66012;SDS011;52783;50.502;8.190;2022-07-10T14:21:19;3.35;;;0.80;;
66012;SDS011;52783;50.502;8.190;2022-07-10T14:23:45;2.20;;;0.75;;
66012;SDS011;52783;50.502;8.190;2022-07-10T14:26:11;2.35;;;0.90;;
66012;SDS011;52783;50.502;8.190;2022-07-10T14:28:37;1.50;;;0.80;;
66012;SDS011;52783;50.502;8.190;2022-07-10T14:31:03;4.30;;;1.00;;
66012;SDS011;52783;50.502;8.190;2022-07-10T14:33:31;1.17;;;0.63;;
66012;SDS011;52783;50.502;8.190;2022-07-10T14:35:57;0.65;;;0.52;;
66012;SDS011;52783;50.502;8.190;2022-07-10T14:38:23;1.02;;;0.80;;
66012;SDS011;52783;50.502;8.190;2022-07-10T14:40:49;1.88;;;0.60;;
66012;SDS011;52783;50.502;8.190;2022-07-10T14:43:17;17.48;;;1.00;;
66012;SDS011;52783;50.502;8.190;2022-07-10T14:45:44;2.42;;;0.60;;
66012;SDS011;52783;50.502;8.190;2022-07-10T14:48:09;4.28;;;1.25;;
66012;SDS011;52783;50.502;8.190;2022-07-10T14:50:35;4.25;;;1.00;;
66012;SDS011;52783;50.502;8.190;2022-07-10T14:53:01;0.95;;;0.80;;
66012;SDS011;52783;50.502;8.190;2022-07-10T14:55:26;1.58;;;0.90;;
66012;SDS011;52783;50.502;8.190;2022-07-10T14:57:52;0.68;;;0.68;;
66012;SDS011;52783;50.502;8.190;2022-07-10T15:00:17;3.92;;;0.70;;
66012;SDS011;52783;50.502;8.190;2022-07-10T15:02:43;2.38;;;1.10;;
66012;SDS011;52783;50.502;8.190;2022-07-10T15:05:10;1.65;;;1.05;;
66012;SDS011;52783;50.502;8.190;2022-07-10T15:07:35;1.20;;;1.20;;
66012;SDS011;52783;50.502;8.190;2022-07-10T15:10:01;1.63;;;1.20;;
66012;SDS011;52783;50.502;8.190;2022-07-10T15:12:26;1.88;;;1.60;;
66012;SDS011;52783;50.502;8.190;2022-07-10T15:14:52;5.10;;;1.60;;
66012;SDS011;52783;50.502;8.190;2022-07-10T15:17:18;2.08;;;1.40;;
66012;SDS011;52783;50.502;8.190;2022-07-10T15:19:43;3.72;;;2.90;;
66012;SDS011;52783;50.502;8.190;2022-07-10T15:22:09;4.18;;;2.00;;
66012;SDS011;52783;50.502;8.190;2022-07-10T15:24:34;2.78;;;2.10;;
66012;SDS011;52783;50.502;8.190;2022-07-10T15:27:00;3.70;;;2.33;;
66012;SDS011;52783;50.502;8.190;2022-07-10T15:29:25;2.83;;;2.08;;